Time;durP1;ratioP1;P1;durP2;ratioP2;P2;SDS_P1;SDS_P2;PMS_P1;PMS_P2;Temp;Humidity;BMP_temperature;BMP_pressure;BME280_temperature;BME280_humidity;BME280_pressure;Samples;Min_cycle;Max_cycle;Signal;HPM_P1;HPM_P2
2022/03/12 00:01:29;;;;;;;;;24.50;23.75;;;;;10.30;40.06;101093.94;5081634;28;11472;-70
2022/03/12 00:03:57;;;;;;;;;31.50;22.25;;;;;10.33;39.89;101090.88;5090652;28;11074;-69
2022/03/12 00:06:24;;;;;;;;;22.25;22.25;;;;;10.32;39.53;101094.59;5106735;28;11550;-70
2022/03/12 00:08:55;;;;;;;;;36.25;31.75;;;;;10.32;39.99;101100.00;5092876;28;11176;-73
2022/03/12 00:11:34;;;;;;;;;27.00;20.75;;;;;10.28;40.34;101103.25;5091306;28;11473;-68
2022/03/12 00:14:04;;;;;;;;;28.00;25.50;;;;;10.34;40.23;101095.25;5087044;28;11246;-70
2022/03/12 00:16:31;;;;;;;;;36.00;27.00;;;;;10.24;40.45;101097.38;5088089;28;11485;-70
2022/03/12 00:19:01;;;;;;;;;29.00;23.75;;;;;10.26;41.40;101099.91;5105949;28;11182;-72
2022/03/12 00:21:36;;;;;;;;;32.75;28.00;;;;;10.21;41.48;101094.19;5090139;28;11501;-71
2022/03/12 00:24:05;;;;;;;;;28.00;25.25;;;;;10.21;42.19;101096.91;5089855;28;11227;-70
2022/03/12 00:26:33;;;;;;;;;24.50;24.25;;;;;10.16;41.96;101098.25;5094299;28;11285;-68
2022/03/12 00:28:59;;;;;;;;;25.50;25.50;;;;;10.14;43.02;101100.25;5107545;28;11481;-69
2022/03/12 00:31:26;;;;;;;;;28.25;19.00;;;;;10.14;42.63;101104.84;5083902;28;11477;-70
2022/03/12 00:33:54;;;;;;;;;25.25;25.00;;;;;10.10;42.40;101092.69;5086575;28;11105;-71
2022/03/12 00:36:20;;;;;;;;;29.25;27.50;;;;;10.14;42.82;101105.69;5093932;28;12008;-69
2022/03/12 00:38:48;;;;;;;;;36.50;33.50;;;;;10.14;42.44;101096.72;5094046;28;11594;-70
2022/03/12 00:41:16;;;;;;;;;30.75;26.50;;;;;10.12;42.35;101096.06;5092881;28;11502;-70
2022/03/12 00:43:43;;;;;;;;;28.25;22.00;;;;;10.11;42.58;101111.44;5091435;28;11486;-70
2022/03/12 00:46:10;;;;;;;;;27.50;22.25;;;;;10.13;42.83;101105.84;5093361;28;11609;-69
2022/03/12 00:48:38;;;;;;;;;34.50;28.75;;;;;10.07;42.65;101107.41;5090761;28;11244;-69
2022/03/12 00:51:06;;;;;;;;;35.25;29.50;;;;;10.06;42.41;101103.03;5094489;28;11495;-70
2022/03/12 00:53:34;;;;;;;;;21.75;20.00;;;;;10.12;43.18;101115.00;5091736;28;11601;-70
2022/03/12 00:56:02;;;;;;;;;22.00;19.00;;;;;10.08;43.43;101106.41;5096759;28;11090;-71
2022/03/12 00:58:28;;;;;;;;;23.25;18.25;;;;;10.07;44.47;101112.84;5096675;28;11359;-69
2022/03/12 01:00:55;;;;;;;;;24.50;19.75;;;;;10.08;45.61;101102.84;5068971;28;11148;-69
2022/03/12 01:03:22;;;;;;;;;20.75;20.75;;;;;9.93;46.20;101116.31;5097665;28;11105;-70
2022/03/12 01:05:50;;;;;;;;;24.00;22.75;;;;;9.92;46.82;101121.91;5096307;28;11150;-70
2022/03/12 01:08:18;;;;;;;;;26.75;23.75;;;;;9.93;46.70;101123.59;5106980;28;11266;-69
2022/03/12 01:10:45;;;;;;;;;18.25;16.25;;;;;9.89;47.82;101117.66;5095003;28;11261;-69
2022/03/12 01:13:12;;;;;;;;;24.00;20.75;;;;;9.91;48.35;101117.50;5095280;28;11461;-70
2022/03/12 01:15:39;;;;;;;;;30.25;24.00;;;;;9.88;47.80;101124.09;5118886;27;11496;-70
2022/03/12 01:18:13;;;;;;;;;25.50;19.75;;;;;9.87;47.65;101122.41;5096958;28;11473;-70
2022/03/12 01:20:40;;;;;;;;;25.75;23.25;;;;;9.92;47.70;101122.75;5076652;28;12169;-70
2022/03/12 01:23:08;;;;;;;;;22.25;21.75;;;;;9.93;47.05;101118.19;5077412;28;11572;-69
2022/03/12 01:25:35;;;;;;;;;36.75;27.00;;;;;9.94;47.75;101115.31;5097791;28;11580;-70
2022/03/12 01:28:02;;;;;;;;;22.25;19.25;;;;;9.93;47.56;101123.59;5097852;28;11494;-70
2022/03/12 01:30:31;;;;;;;;;25.75;19.00;;;;;9.95;48.65;101119.69;5096577;28;11222;-70
2022/03/12 01:32:57;;;;;;;;;29.25;26.25;;;;;9.92;49.08;101130.03;5097055;28;11313;-70
2022/03/12 01:35:24;;;;;;;;;27.75;23.75;;;;;9.91;49.07;101125.59;5092106;28;11532;-69
2022/03/12 01:37:51;;;;;;;;;31.25;27.50;;;;;9.85;50.86;101122.59;5078642;28;11465;-70
2022/03/12 01:40:18;;;;;;;;;29.25;22.00;;;;;9.83;50.77;101126.50;5095413;28;11477;-69
2022/03/12 01:42:45;;;;;;;;;25.00;22.25;;;;;9.78;52.09;101134.31;5109032;28;11178;-69
2022/03/12 01:45:13;;;;;;;;;24.75;22.25;;;;;9.73;53.89;101134.00;5094827;28;12236;-70
2022/03/12 01:47:40;;;;;;;;;18.75;18.50;;;;;9.71;53.73;101128.78;5094755;28;11548;-69
2022/03/12 01:50:08;;;;;;;;;27.00;26.00;;;;;9.65;56.08;101136.72;5091245;28;11136;-70
2022/03/12 01:52:34;;;;;;;;;30.75;26.25;;;;;9.57;57.40;101134.91;5118548;27;11479;-70
2022/03/12 01:55:01;;;;;;;;;32.50;21.00;;;;;9.56;57.96;101141.31;5093702;28;12168;-70
2022/03/12 01:57:29;;;;;;;;;24.75;22.25;;;;;9.52;57.94;101140.84;5093503;28;11268;-70
2022/03/12 01:59:55;;;;;;;;;25.75;25.75;;;;;9.47;58.77;101134.28;5090072;28;11499;-70
2022/03/12 02:02:23;;;;;;;;;28.50;22.50;;;;;9.42;60.42;101142.06;5089447;28;11444;-69
2022/03/12 02:04:51;;;;;;;;;25.75;22.50;;;;;9.31;60.76;101137.88;5092973;28;11358;-69
2022/03/12 02:07:19;;;;;;;;;32.25;28.00;;;;;9.28;62.14;101140.06;5093845;28;11494;-70
2022/03/12 02:09:46;;;;;;;;;29.75;20.50;;;;;9.22;63.18;101147.03;5090381;28;11489;-71
2022/03/12 02:12:12;;;;;;;;;32.00;29.50;;;;;9.28;61.72;101148.19;5093067;28;11137;-69
2022/03/12 02:14:39;;;;;;;;;24.75;21.50;;;;;9.21;61.80;101143.47;5092112;28;11392;-69
2022/03/12 02:17:10;;;;;;;;;27.00;26.50;;;;;9.21;61.78;101146.19;5092929;28;11519;-69
2022/03/12 02:19:39;;;;;;;;;26.00;22.25;;;;;9.24;60.98;101142.28;5091890;28;11630;-69
2022/03/12 02:22:14;;;;;;;;;26.50;26.00;;;;;9.16;61.61;101134.19;5092203;28;11489;-70
2022/03/12 02:24:41;;;;;;;;;28.25;27.25;;;;;9.05;61.93;101138.09;5093304;28;11469;-70
2022/03/12 02:27:10;;;;;;;;;25.50;21.75;;;;;9.13;61.10;101132.66;5093271;28;11537;-68
2022/03/12 02:29:37;;;;;;;;;32.50;28.75;;;;;9.16;61.20;101139.59;5091396;28;11477;-70
2022/03/12 02:32:10;;;;;;;;;24.50;19.00;;;;;9.17;60.75;101139.44;5092853;28;11499;-70
2022/03/12 02:34:42;;;;;;;;;22.50;20.00;;;;;9.20;61.15;101149.91;5092998;28;11314;-69
2022/03/12 02:37:11;;;;;;;;;29.75;25.75;;;;;9.20;61.56;101147.19;5090674;28;11171;-69
2022/03/12 02:39:39;;;;;;;;;34.50;28.50;;;;;9.21;62.44;101151.59;5089209;28;11478;-69
2022/03/12 02:42:09;;;;;;;;;27.75;22.00;;;;;9.18;62.01;101142.97;5094860;28;11609;-69
2022/03/12 02:44:36;;;;;;;;;28.75;24.25;;;;;9.19;60.26;101133.88;5093352;28;11255;-70
2022/03/12 02:47:25;;;;;;;;;25.25;22.75;;;;;9.13;60.78;101142.63;5094568;28;11541;-70
2022/03/12 02:49:58;;;;;;;;;28.75;25.50;;;;;9.13;60.15;101140.78;5093185;28;11480;-69
2022/03/12 02:52:30;;;;;;;;;23.75;18.00;;;;;9.03;60.13;101145.53;5092812;28;11475;-70
2022/03/12 02:54:58;;;;;;;;;25.00;24.00;;;;;9.14;59.95;101138.91;5088172;28;11251;-69
2022/03/12 02:57:27;;;;;;;;;32.25;28.00;;;;;9.12;59.45;101141.78;5092156;28;11483;-69
2022/03/12 02:59:55;;;;;;;;;32.75;29.00;;;;;9.09;59.18;101150.25;5082316;28;11522;-70
2022/03/12 03:02:40;;;;;;;;;24.75;21.75;;;;;9.11;59.02;101153.59;5092577;28;11489;-70
2022/03/12 03:05:38;;;;;;;;;24.00;21.50;;;;;9.10;58.82;101157.31;5092308;28;11478;-70
2022/03/12 03:08:06;;;;;;;;;32.75;26.75;;;;;9.17;59.08;101163.75;5080637;28;11518;-69
2022/03/12 03:10:39;;;;;;;;;31.25;24.00;;;;;9.09;58.58;101158.34;5097141;28;11553;-69
2022/03/12 03:13:18;;;;;;;;;25.00;21.50;;;;;9.10;58.48;101154.63;5095054;28;11640;-70
2022/03/12 03:15:53;;;;;;;;;31.25;26.25;;;;;9.10;58.57;101161.88;5096422;28;11517;-70
2022/03/12 03:18:22;;;;;;;;;27.00;25.25;;;;;9.14;59.12;101158.66;5096301;28;11476;-70
2022/03/12 03:20:51;;;;;;;;;22.75;20.00;;;;;9.13;58.70;101156.97;5090727;28;11476;-69
2022/03/12 03:23:20;;;;;;;;;36.75;28.50;;;;;9.14;58.82;101155.97;5094737;28;11481;-69
2022/03/12 03:25:47;;;;;;;;;20.50;17.50;;;;;9.19;59.68;101171.69;5095325;28;11519;-69
2022/03/12 03:28:16;;;;;;;;;26.25;25.25;;;;;9.15;58.67;101157.66;5093854;28;11426;-70
2022/03/12 03:30:43;;;;;;;;;24.50;24.50;;;;;9.16;58.62;101166.59;5094466;28;11556;-69
2022/03/12 03:33:11;;;;;;;;;30.50;26.25;;;;;9.15;58.19;101159.50;5092789;28;11444;-68
2022/03/12 03:35:38;;;;;;;;;29.25;22.75;;;;;9.20;58.55;101168.81;5093990;28;11488;-70
2022/03/12 03:38:08;;;;;;;;;23.25;21.25;;;;;9.15;58.70;101167.63;5084456;28;11451;-69
2022/03/12 03:40:35;;;;;;;;;25.50;20.75;;;;;9.19;59.17;101166.28;5100594;28;11442;-69
2022/03/12 03:43:06;;;;;;;;;25.50;23.50;;;;;9.21;59.47;101175.06;5092862;28;11459;-70
2022/03/12 03:45:32;;;;;;;;;27.25;26.50;;;;;9.20;59.31;101176.06;5094214;28;11611;-69
2022/03/12 03:47:59;;;;;;;;;19.00;15.75;;;;;9.25;59.68;101177.22;5094026;28;11461;-69
2022/03/12 03:50:27;;;;;;;;;24.75;20.75;;;;;9.23;60.56;101178.41;5109586;28;11315;-69
2022/03/12 03:53:03;;;;;;;;;25.00;21.50;;;;;9.23;60.25;101176.56;5090970;28;11546;-69
2022/03/12 03:55:31;;;;;;;;;30.25;23.25;;;;;9.24;59.81;101183.66;5093642;28;11462;-69
2022/03/12 03:57:59;;;;;;;;;28.00;24.50;;;;;9.27;60.21;101181.63;5093504;28;11493;-69
2022/03/12 04:00:28;;;;;;;;;26.75;21.25;;;;;9.28;60.43;101175.19;5093638;28;11468;-70
2022/03/12 04:03:07;;;;;;;;;30.75;20.00;;;;;9.32;60.10;101181.94;5089900;28;11424;-69
2022/03/12 04:05:36;;;;;;;;;26.50;24.75;;;;;9.22;61.55;101182.13;5098169;28;11553;-68
2022/03/12 04:08:06;;;;;;;;;23.75;21.00;;;;;9.29;61.21;101183.13;5097623;28;11488;-70
2022/03/12 04:10:36;;;;;;;;;23.00;21.50;;;;;9.30;61.17;101190.22;5096978;28;11579;-70
2022/03/12 04:13:12;;;;;;;;;26.50;22.75;;;;;9.27;61.67;101198.66;5097723;28;11479;-70
2022/03/12 04:15:40;;;;;;;;;29.00;29.00;;;;;9.22;61.87;101195.66;5084318;28;12155;-70
2022/03/12 04:18:07;;;;;;;;;25.50;16.25;;;;;9.24;61.96;101202.56;5098993;28;11464;-69
2022/03/12 04:20:35;;;;;;;;;19.25;13.75;;;;;9.15;62.98;101194.63;5097140;28;11234;-70
2022/03/12 04:23:02;;;;;;;;;27.75;23.50;;;;;9.19;63.02;101193.28;5097876;28;11142;-71
2022/03/12 04:25:31;;;;;;;;;18.50;14.00;;;;;9.17;63.67;101209.66;5094283;28;11484;-68
2022/03/12 04:27:58;;;;;;;;;29.00;23.00;;;;;9.17;63.79;101206.97;5090152;28;11167;-68
2022/03/12 04:30:25;;;;;;;;;20.50;16.50;;;;;9.17;64.65;101206.09;5092807;28;11468;-68
2022/03/12 04:32:52;;;;;;;;;25.00;20.25;;;;;9.15;65.01;101203.56;5094616;28;11250;-68
2022/03/12 04:35:19;;;;;;;;;20.50;19.25;;;;;9.15;65.13;101200.03;5094838;28;11256;-68
2022/03/12 04:37:45;;;;;;;;;27.25;23.25;;;;;9.11;65.60;101199.53;5094961;28;12242;-68
2022/03/12 04:40:18;;;;;;;;;23.00;18.00;;;;;9.12;65.93;101198.50;5094586;28;11584;-68
2022/03/12 04:42:44;;;;;;;;;20.25;17.25;;;;;9.10;66.78;101205.09;5088872;28;11160;-67
2022/03/12 04:45:14;;;;;;;;;18.50;15.25;;;;;9.09;67.13;101206.13;5070099;28;11828;-68
2022/03/12 04:47:44;;;;;;;;;21.50;19.50;;;;;9.05;67.74;101207.47;5074483;28;11102;-69
2022/03/12 04:50:12;;;;;;;;;22.25;18.25;;;;;9.06;68.03;101215.41;5091577;28;11076;-68
2022/03/12 04:52:42;;;;;;;;;24.00;18.25;;;;;9.06;68.17;101222.66;5094683;28;11456;-69
2022/03/12 04:55:12;;;;;;;;;21.00;20.25;;;;;9.04;68.88;101230.09;5092775;28;12227;-70
2022/03/12 04:57:40;;;;;;;;;19.25;17.75;;;;;9.03;69.45;101229.25;5116433;27;11872;-69
2022/03/12 05:00:10;;;;;;;;;17.50;14.50;;;;;9.01;69.77;101227.75;5093783;28;11224;-70
2022/03/12 05:02:39;;;;;;;;;19.50;17.00;;;;;8.99;70.18;101224.38;5073719;28;11125;-69
2022/03/12 05:05:07;;;;;;;;;13.50;12.75;;;;;9.01;70.63;101225.03;5087432;28;11148;-68
2022/03/12 05:07:34;;;;;;;;;21.00;14.75;;;;;8.98;70.63;101226.22;5092245;28;11137;-69
2022/03/12 05:10:01;;;;;;;;;23.00;22.00;;;;;9.00;70.97;101226.91;5089759;28;11138;-69
2022/03/12 05:12:28;;;;;;;;;16.50;13.00;;;;;9.01;71.22;101228.59;5091445;28;11443;-68
2022/03/12 05:14:54;;;;;;;;;9.50;9.50;;;;;8.99;71.51;101238.72;5094228;28;11240;-70
2022/03/12 05:17:26;;;;;;;;;16.50;13.50;;;;;8.96;71.70;101232.81;5094767;28;11708;-68
2022/03/12 05:19:53;;;;;;;;;19.50;19.00;;;;;8.89;72.05;101235.31;5093386;28;11152;-69
2022/03/12 05:22:19;;;;;;;;;14.00;13.50;;;;;8.95;72.25;101234.66;5094303;28;11450;-69
2022/03/12 05:24:46;;;;;;;;;16.00;15.00;;;;;8.96;72.55;101243.59;5090293;28;11282;-70
2022/03/12 05:27:14;;;;;;;;;15.00;13.00;;;;;8.93;72.83;101242.09;5094168;28;11154;-69
2022/03/12 05:29:41;;;;;;;;;17.50;17.00;;;;;8.88;73.18;101247.13;5093700;28;11142;-70
2022/03/12 05:32:11;;;;;;;;;14.25;13.00;;;;;8.90;73.42;101253.19;5093855;28;11176;-69
2022/03/12 05:34:37;;;;;;;;;16.75;15.00;;;;;8.90;73.51;101245.94;5105913;28;11320;-69
2022/03/12 05:37:08;;;;;;;;;19.50;18.00;;;;;8.88;73.83;101247.97;5108551;28;11187;-70
2022/03/12 05:39:37;;;;;;;;;15.00;14.00;;;;;8.92;74.11;101256.56;5123143;27;11236;-69
2022/03/12 05:42:05;;;;;;;;;12.25;11.25;;;;;8.85;74.64;101261.81;5114381;28;11157;-69
2022/03/12 05:44:34;;;;;;;;;12.75;12.50;;;;;8.88;75.17;101260.63;5104053;28;11022;-69
2022/03/12 05:47:02;;;;;;;;;15.00;13.00;;;;;8.87;75.51;101259.78;5094829;28;11009;-68
2022/03/12 05:49:29;;;;;;;;;13.50;11.00;;;;;8.89;75.54;101267.72;5087898;28;11915;-69
2022/03/12 05:51:56;;;;;;;;;12.50;12.50;;;;;8.80;75.94;101269.56;5096235;28;10970;-70
2022/03/12 05:54:23;;;;;;;;;10.50;10.25;;;;;8.83;76.23;101255.75;5096892;28;11079;-69
2022/03/12 05:56:50;;;;;;;;;13.00;9.50;;;;;8.88;76.86;101261.47;5095258;28;11550;-69
2022/03/12 05:59:17;;;;;;;;;9.00;8.75;;;;;8.87;77.21;101262.47;5096494;28;10966;-69
2022/03/12 06:01:43;;;;;;;;;12.25;10.00;;;;;8.88;77.52;101261.47;5095557;28;10963;-69
2022/03/12 06:04:12;;;;;;;;;8.75;8.75;;;;;8.87;78.01;101275.16;5090680;28;11104;-70
2022/03/12 06:06:42;;;;;;;;;12.00;10.00;;;;;8.89;78.22;101273.97;5094231;28;10926;-69
2022/03/12 06:09:11;;;;;;;;;14.50;9.25;;;;;8.91;78.80;101279.19;5088849;28;11118;-69
2022/03/12 06:11:37;;;;;;;;;11.50;9.25;;;;;8.85;78.79;101280.72;5093775;28;10873;-69
2022/03/12 06:14:04;;;;;;;;;9.00;8.50;;;;;8.90;79.14;101282.91;5094368;28;10926;-69
2022/03/12 06:16:32;;;;;;;;;12.75;12.00;;;;;8.90;79.50;101286.44;5093348;28;10898;-69
2022/03/12 06:18:58;;;;;;;;;12.50;9.25;;;;;8.89;79.71;101286.63;5089192;28;11030;-69
2022/03/12 06:21:25;;;;;;;;;10.50;10.50;;;;;8.92;80.15;101286.28;5092689;28;11259;-69
2022/03/12 06:23:54;;;;;;;;;6.50;6.50;;;;;8.99;79.78;101279.22;5091387;28;11836;-69
2022/03/12 06:26:21;;;;;;;;;11.00;9.00;;;;;9.05;79.59;101291.19;5092049;28;10870;-69
2022/03/12 06:28:48;;;;;;;;;9.75;6.25;;;;;9.38;78.80;101300.13;5093162;28;10804;-69
2022/03/12 06:31:14;;;;;;;;;7.25;7.00;;;;;9.49;77.71;101294.41;5092807;28;10924;-70
2022/03/12 06:33:42;;;;;;;;;11.75;10.00;;;;;9.40;77.68;101304.34;5085571;28;10870;-69
2022/03/12 06:36:09;;;;;;;;;8.00;6.50;;;;;9.33;77.66;101310.63;5093231;28;10798;-69
2022/03/12 06:38:37;;;;;;;;;4.75;4.75;;;;;9.29;78.24;101310.13;5093016;28;10782;-69
2022/03/12 06:41:04;;;;;;;;;10.00;9.25;;;;;9.30;77.98;101319.91;5092966;28;10669;-70
2022/03/12 06:43:32;;;;;;;;;8.00;7.00;;;;;9.36;78.48;101316.53;5092381;28;10891;-68
2022/03/12 06:46:01;;;;;;;;;9.00;9.00;;;;;9.42;78.22;101320.44;5091866;28;12210;-69
2022/03/12 06:48:31;;;;;;;;;8.50;8.00;;;;;9.52;78.27;101321.09;5092430;28;10741;-70
2022/03/12 06:50:58;;;;;;;;;8.00;6.50;;;;;9.52;77.63;101321.94;5089310;28;10902;-68
2022/03/12 06:53:25;;;;;;;;;9.75;9.25;;;;;9.42;77.73;101332.09;5092954;28;10821;-69
2022/03/12 06:55:53;;;;;;;;;11.00;8.50;;;;;9.34;78.63;101320.41;5093791;28;10671;-68
2022/03/12 06:58:19;;;;;;;;;9.25;8.00;;;;;9.32;79.08;101327.84;5093431;28;10750;-69
2022/03/12 07:00:46;;;;;;;;;13.50;11.50;;;;;9.35;78.71;101327.50;5093504;28;10735;-69
2022/03/12 07:03:12;;;;;;;;;10.25;10.25;;;;;9.32;78.98;101330.53;5086388;28;10908;-69
2022/03/12 07:05:39;;;;;;;;;10.50;10.50;;;;;9.30;79.38;101332.56;5091826;28;10863;-68
2022/03/12 07:08:05;;;;;;;;;10.75;9.75;;;;;9.28;79.47;101337.31;5092705;28;10757;-69
2022/03/12 07:10:32;;;;;;;;;9.00;9.00;;;;;9.34;79.37;101340.16;5091270;28;10907;-68
2022/03/12 07:12:59;;;;;;;;;8.00;8.00;;;;;9.33;79.41;101338.47;5090800;28;10903;-68
2022/03/12 07:15:25;;;;;;;;;9.00;9.00;;;;;9.40;78.89;101334.09;5083561;28;11503;-68
2022/03/12 07:17:53;;;;;;;;;11.50;9.00;;;;;9.39;78.90;101342.34;5083535;28;10886;-68
2022/03/12 07:20:19;;;;;;;;;12.50;12.50;;;;;9.49;78.84;101343.91;5090957;28;10876;-68
2022/03/12 07:22:47;;;;;;;;;12.50;9.25;;;;;9.57;78.71;101359.25;5107331;28;10987;-69
2022/03/12 07:25:14;;;;;;;;;9.50;8.25;;;;;9.59;78.01;101356.38;5090385;28;10966;-70
2022/03/12 07:27:42;;;;;;;;;11.00;9.00;;;;;9.56;78.31;101354.88;5089847;28;10631;-68
2022/03/12 07:30:12;;;;;;;;;10.75;8.00;;;;;9.66;78.38;101352.81;5091295;28;10760;-68
2022/03/12 07:32:39;;;;;;;;;6.25;4.00;;;;;9.75;77.84;101350.97;5084452;28;10633;-69
2022/03/12 07:35:06;;;;;;;;;10.50;9.25;;;;;9.83;77.63;101350.94;5107808;27;10728;-70
2022/03/12 07:37:32;;;;;;;;;15.25;14.25;;;;;9.81;77.11;101358.38;5070599;28;10903;-70
2022/03/12 07:39:59;;;;;;;;;12.50;11.25;;;;;9.97;76.93;101360.22;5083753;28;10951;-69
2022/03/12 07:42:25;;;;;;;;;9.00;8.00;;;;;10.06;76.95;101360.03;5089397;28;10830;-68
2022/03/12 07:44:52;;;;;;;;;14.75;13.75;;;;;10.05;76.96;101368.31;5090491;28;10842;-70
2022/03/12 07:47:19;;;;;;;;;14.75;13.50;;;;;10.01;76.93;101369.69;5091194;28;10831;-69
2022/03/12 07:49:46;;;;;;;;;13.00;13.00;;;;;10.00;76.81;101370.69;5089627;28;10830;-68
2022/03/12 07:52:14;;;;;;;;;10.00;9.25;;;;;10.13;76.85;101371.00;5089954;28;10892;-69
2022/03/12 07:54:41;;;;;;;;;14.00;13.25;;;;;10.17;76.22;101372.34;5091191;28;10847;-68
2022/03/12 07:57:07;;;;;;;;;14.75;11.50;;;;;10.17;76.24;101373.19;5084788;28;10859;-69
2022/03/12 07:59:35;;;;;;;;;14.00;14.00;;;;;10.14;76.29;101380.78;5090576;28;10980;-68
2022/03/12 08:02:02;;;;;;;;;14.75;10.50;;;;;10.13;76.72;101387.22;5088738;28;11002;-69
2022/03/12 08:04:32;;;;;;;;;10.00;9.75;;;;;10.18;76.87;101391.13;5079605;28;10932;-68
2022/03/12 08:07:02;;;;;;;;;10.00;7.75;;;;;10.22;77.10;101394.34;5090058;28;10815;-69
2022/03/12 08:09:30;;;;;;;;;13.25;13.25;;;;;10.27;77.28;101402.78;5081845;28;10852;-69
2022/03/12 08:11:58;;;;;;;;;8.50;8.00;;;;;10.32;76.89;101400.41;5089543;28;10835;-68
2022/03/12 08:14:25;;;;;;;;;12.75;12.00;;;;;10.37;76.45;101405.28;5089828;28;11377;-68
2022/03/12 08:16:52;;;;;;;;;11.50;10.75;;;;;10.57;76.71;101405.75;5085780;28;10692;-70
2022/03/12 08:19:21;;;;;;;;;12.00;12.00;;;;;10.78;75.86;101404.13;5078774;28;10748;-69
2022/03/12 08:21:49;;;;;;;;;12.25;8.50;;;;;10.77;75.06;101401.59;5088683;28;10800;-68
2022/03/12 08:24:15;;;;;;;;;12.50;10.50;;;;;10.79;75.38;101405.81;5089345;28;10507;-70
2022/03/12 08:26:44;;;;;;;;;10.75;9.00;;;;;10.90;75.15;101414.56;5088335;28;10700;-69
2022/03/12 08:29:13;;;;;;;;;10.00;6.75;;;;;11.10;74.61;101413.94;5089641;28;10692;-68
2022/03/12 08:31:41;;;;;;;;;7.75;7.75;;;;;11.36;73.18;101416.31;5088400;28;10584;-70
2022/03/12 08:34:09;;;;;;;;;9.00;5.50;;;;;11.59;72.62;101427.16;5089574;28;10866;-69
2022/03/12 08:36:35;;;;;;;;;10.75;9.75;;;;;11.74;71.81;101429.09;5089860;28;10442;-69
2022/03/12 08:39:03;;;;;;;;;7.50;7.50;;;;;11.89;71.14;101430.84;5085948;28;10750;-70
2022/03/12 08:41:29;;;;;;;;;8.25;8.25;;;;;12.08;70.54;101428.63;5089532;28;10491;-69
2022/03/12 08:43:56;;;;;;;;;9.00;6.00;;;;;12.16;69.82;101432.13;5089594;28;10346;-69
2022/03/12 08:46:22;;;;;;;;;8.25;7.50;;;;;12.22;68.98;101419.69;5091787;28;10548;-69
2022/03/12 08:48:49;;;;;;;;;8.25;7.50;;;;;12.59;68.50;101433.19;5094059;28;10491;-69
2022/03/12 08:51:15;;;;;;;;;8.00;7.25;;;;;12.61;68.29;101425.69;5084928;28;10457;-69
2022/03/12 08:53:42;;;;;;;;;8.50;8.50;;;;;12.66;67.50;101432.44;5090899;28;10514;-70
2022/03/12 08:56:09;;;;;;;;;7.50;7.00;;;;;12.80;67.17;101439.72;5088845;28;10483;-70
2022/03/12 08:58:37;;;;;;;;;7.25;7.25;;;;;12.91;66.66;101441.97;5091468;28;10410;-70
2022/03/12 09:01:06;;;;;;;;;11.25;10.00;;;;;12.88;66.69;101445.06;5091597;28;10250;-69
2022/03/12 09:03:33;;;;;;;;;10.00;9.50;;;;;12.69;66.63;101449.22;5091186;28;10399;-69
2022/03/12 09:06:00;;;;;;;;;9.50;7.00;;;;;12.81;66.61;101438.69;5090636;28;10395;-70
2022/03/12 09:08:26;;;;;;;;;12.75;11.75;;;;;12.78;66.64;101445.34;5088851;28;10444;-69
2022/03/12 09:10:55;;;;;;;;;7.75;7.25;;;;;12.95;65.86;101446.00;5072417;28;10498;-69
2022/03/12 09:13:22;;;;;;;;;10.00;8.25;;;;;13.07;65.59;101446.34;5072699;28;10137;-69
2022/03/12 09:15:49;;;;;;;;;11.00;9.75;;;;;13.09;65.41;101449.72;5092654;28;10125;-70
2022/03/12 09:18:16;;;;;;;;;9.00;7.25;;;;;13.14;65.77;101450.00;5092488;28;10201;-70
2022/03/12 09:20:52;;;;;;;;;8.75;8.75;;;;;13.54;64.37;101454.88;5089364;28;10090;-70
2022/03/12 09:23:21;;;;;;;;;10.00;9.00;;;;;13.66;63.58;101460.66;5082750;28;10219;-69
2022/03/12 09:25:50;;;;;;;;;10.75;7.00;;;;;13.80;63.66;101453.44;5084279;28;10056;-69
2022/03/12 09:28:20;;;;;;;;;10.00;9.00;;;;;13.68;64.33;101465.91;5090425;28;9887;-69
2022/03/12 09:30:52;;;;;;;;;9.50;9.25;;;;;13.59;63.92;101462.44;5091078;28;10040;-69
2022/03/12 09:33:21;;;;;;;;;6.50;6.50;;;;;13.35;64.14;101452.78;5091987;28;9967;-69
2022/03/12 09:35:49;;;;;;;;;8.00;7.50;;;;;13.29;65.12;101458.97;5072107;28;10102;-69
2022/03/12 09:38:16;;;;;;;;;11.25;8.50;;;;;13.29;64.80;101461.69;5071608;28;10081;-68
2022/03/12 09:40:44;;;;;;;;;8.25;5.25;;;;;13.23;63.59;101459.75;5090591;28;10157;-68
2022/03/12 09:43:11;;;;;;;;;4.00;4.00;;;;;13.30;63.26;101465.25;5091451;28;9976;-68
2022/03/12 09:45:39;;;;;;;;;8.00;6.00;;;;;13.42;62.79;101464.59;5072018;28;10097;-68
2022/03/12 09:48:07;;;;;;;;;6.25;4.50;;;;;13.56;62.66;101465.56;5080833;28;10343;-68
2022/03/12 09:50:33;;;;;;;;;6.00;6.00;;;;;13.47;62.00;101469.44;5091096;28;9978;-68
2022/03/12 09:53:00;;;;;;;;;9.75;9.00;;;;;13.25;62.71;101471.28;5090140;28;10073;-69
2022/03/12 09:55:27;;;;;;;;;9.50;5.75;;;;;13.02;63.07;101468.66;5091680;28;10108;-68
2022/03/12 09:57:53;;;;;;;;;7.00;6.00;;;;;12.76;63.40;101474.59;5091138;28;10114;-68
2022/03/12 10:00:21;;;;;;;;;5.50;5.50;;;;;13.09;62.69;101480.47;5089383;28;10090;-69
2022/03/12 10:02:48;;;;;;;;;7.00;6.00;;;;;13.26;63.09;101488.44;5085588;28;10119;-68
2022/03/12 10:05:14;;;;;;;;;7.25;7.25;;;;;13.05;63.18;101490.03;5091117;28;10166;-69
2022/03/12 10:07:44;;;;;;;;;5.00;4.75;;;;;12.87;63.10;101497.72;5091631;28;9978;-69
2022/03/12 10:10:15;;;;;;;;;5.00;5.00;;;;;12.62;63.72;101489.00;5090305;28;10623;-70
2022/03/12 10:12:43;;;;;;;;;7.00;6.25;;;;;12.49;63.92;101494.25;5091434;28;10728;-70
2022/03/12 10:15:12;;;;;;;;;10.75;8.25;;;;;12.68;63.40;101501.88;5091213;28;10073;-68
2022/03/12 10:17:39;;;;;;;;;9.75;6.00;;;;;12.64;63.00;101500.56;5067600;28;10938;-69
2022/03/12 10:20:08;;;;;;;;;7.00;7.00;;;;;12.50;63.20;101498.66;5085050;28;11054;-68
2022/03/12 10:22:34;;;;;;;;;7.50;7.50;;;;;12.38;63.30;101491.97;5088251;28;10178;-70
2022/03/12 10:25:01;;;;;;;;;9.25;6.00;;;;;12.32;63.48;101493.56;5089368;28;10036;-68
2022/03/12 10:27:29;;;;;;;;;6.50;5.00;;;;;12.26;63.54;101502.44;5087498;28;10284;-68
2022/03/12 10:29:56;;;;;;;;;5.00;5.00;;;;;12.40;64.28;101498.94;5106341;28;10964;-69
2022/03/12 10:32:32;;;;;;;;;9.25;7.00;;;;;12.46;63.98;101500.91;5089173;28;11323;-68
2022/03/12 10:35:02;;;;;;;;;9.50;7.00;;;;;12.57;63.84;101500.44;5082533;28;10208;-69
2022/03/12 10:37:31;;;;;;;;;13.75;11.50;;;;;12.51;63.66;101503.91;5090844;28;10340;-68
2022/03/12 10:40:11;;;;;;;;;11.25;8.00;;;;;12.46;63.52;101509.06;5088244;28;10278;-69
2022/03/12 10:42:45;;;;;;;;;9.75;8.00;;;;;12.49;64.51;101507.84;5090805;28;10150;-68
2022/03/12 10:45:16;;;;;;;;;7.00;7.00;;;;;12.58;64.16;101504.84;5087838;28;10255;-68
2022/03/12 10:47:47;;;;;;;;;12.00;11.25;;;;;12.56;63.45;101511.47;5091472;28;10319;-68
2022/03/12 10:50:17;;;;;;;;;10.00;7.00;;;;;12.68;63.42;101507.28;5087913;28;10448;-68
2022/03/12 10:52:49;;;;;;;;;10.50;6.50;;;;;12.81;63.46;101515.63;5070342;28;10210;-70
2022/03/12 10:55:19;;;;;;;;;9.75;8.00;;;;;12.90;62.51;101514.53;5084968;28;10213;-68
2022/03/12 10:58:08;;;;;;;;;10.75;10.00;;;;;12.86;62.53;101517.78;5090746;28;11142;-68
2022/03/12 11:01:02;;;;;;;;;10.75;9.75;;;;;12.78;62.48;101520.59;5106739;28;10937;-69
2022/03/12 11:03:32;;;;;;;;;10.50;9.00;;;;;12.67;62.33;101524.63;5105108;28;11053;-68
2022/03/12 11:06:00;;;;;;;;;13.50;9.75;;;;;12.79;62.33;101519.56;5070554;28;10333;-67
2022/03/12 11:08:29;;;;;;;;;12.25;11.00;;;;;12.82;62.31;101535.50;5069479;28;10459;-70
2022/03/12 11:11:10;;;;;;;;;14.50;14.00;;;;;12.75;62.30;101537.28;5078597;28;10381;-69
2022/03/12 11:13:49;;;;;;;;;12.75;11.00;;;;;12.79;62.34;101527.72;5102561;28;10323;-70
2022/03/12 11:16:24;;;;;;;;;9.50;8.25;;;;;13.13;61.36;101527.97;5085058;28;10729;-69
2022/03/12 11:18:51;;;;;;;;;6.25;6.25;;;;;13.16;60.45;101527.63;5086330;28;11870;-70
2022/03/12 11:21:27;;;;;;;;;7.75;7.25;;;;;13.26;60.57;101534.66;5088342;28;10955;-70
2022/03/12 11:23:55;;;;;;;;;14.75;11.75;;;;;13.12;60.90;101537.16;5086309;28;10148;-69
2022/03/12 11:26:24;;;;;;;;;11.25;11.25;;;;;13.26;60.31;101531.94;5090015;28;10209;-70